Time;durP1;ratioP1;P1;durP2;ratioP2;P2;SDS_P1;SDS_P2;PMS_P1;PMS_P2;Temp;Humidity;BMP_temperature;BMP_pressure;BME280_temperature;BME280_humidity;BME280_pressure;Samples;Min_cycle;Max_cycle;Signal;HPM_P1;HPM_P2
2022/02/05 00:02:55;;;;;;;15.35;3.53;;;4.10;99.90;;;;;;4961130;28;20054;-64
2022/02/05 00:05:29;;;;;;;18.30;3.63;;;4.10;99.90;;;;;;4967953;28;20057;-62
2022/02/05 00:08:15;;;;;;;10.80;2.88;;;4.10;99.90;;;;;;5002626;28;20070;-63
2022/02/05 00:40:41;;;;;;;17.83;3.47;;;3.90;99.90;;;;;;4969132;28;20099;-63
2022/02/05 00:43:03;;;;;;;14.68;2.65;;;3.90;99.90;;;;;;4980344;28;20447;-62
2022/02/05 00:45:33;;;;;;;17.58;3.50;;;4.00;99.90;;;;;;4940804;28;20038;-63
2022/02/05 00:48:01;;;;;;;16.88;3.17;;;3.90;99.90;;;;;;4958237;28;20035;-62
2022/02/05 00:50:30;;;;;;;15.93;3.25;;;3.90;99.90;;;;;;4971170;28;20447;-63
2022/02/05 00:53:01;;;;;;;14.05;3.28;;;4.00;99.90;;;;;;4954151;28;20407;-63
2022/02/05 00:55:32;;;;;;;12.87;3.40;;;3.90;99.90;;;;;;4960870;28;20076;-62
2022/02/05 00:58:02;;;;;;;15.13;3.78;;;4.00;99.90;;;;;;4960031;28;20051;-62
2022/02/05 01:00:30;;;;;;;20.00;3.80;;;3.90;99.90;;;;;;4962420;28;20054;-62
2022/02/05 01:02:57;;;;;;;16.58;3.28;;;4.00;99.90;;;;;;4953785;28;20040;-63
2022/02/05 01:05:24;;;;;;;18.23;3.47;;;4.00;99.90;;;;;;4976590;28;20171;-62
2022/02/05 01:07:50;;;;;;;15.20;3.22;;;4.00;99.90;;;;;;4958677;28;20113;-62
2022/02/05 01:10:17;;;;;;;12.10;2.65;;;4.10;99.90;;;;;;4958687;28;20181;-62
2022/02/05 01:12:50;;;;;;;14.30;3.50;;;4.10;99.90;;;;;;4951814;28;20457;-63
2022/02/05 01:15:19;;;;;;;12.75;3.00;;;4.10;99.90;;;;;;4958279;28;20172;-62
2022/02/05 01:17:52;;;;;;;15.40;3.47;;;4.00;99.90;;;;;;4965995;28;20051;-63
2022/02/05 01:23:07;;;;;;;10.98;2.75;;;4.20;99.90;;;;;;4939574;28;20169;-48
2022/02/05 01:25:39;;;;;;;14.30;3.35;;;4.20;99.90;;;;;;4949123;28;20100;-48
2022/02/05 01:28:19;;;;;;;20.15;4.13;;;4.30;99.90;;;;;;4953950;28;20493;-49
2022/02/05 01:30:50;;;;;;;12.55;2.58;;;4.30;99.90;;;;;;4971660;28;20144;-49
2022/02/05 01:57:52;;;;;;;13.48;3.70;;;4.70;99.90;;;;;;4949667;28;20046;-63
2022/02/05 02:05:35;;;;;;;15.93;3.72;;;4.80;99.90;;;;;;4954964;28;20050;-48
2022/02/05 02:18:46;;;;;;;11.45;3.25;;;4.70;99.90;;;;;;4954058;28;20061;-62
2022/02/05 02:21:26;;;;;;;16.15;2.72;;;4.70;99.90;;;;;;4967047;28;20365;-62
2022/02/05 02:29:10;;;;;;;17.15;3.00;;;4.70;99.90;;;;;;4953355;28;20486;-62
2022/02/05 02:31:41;;;;;;;10.77;2.83;;;4.80;99.90;;;;;;4950333;28;20043;-50
2022/02/05 02:34:11;;;;;;;13.82;3.47;;;4.90;99.90;;;;;;4965327;28;20057;-48
2022/02/05 02:36:48;;;;;;;13.18;3.10;;;4.80;99.90;;;;;;4953956;28;20074;-63
2022/02/05 02:39:19;;;;;;;15.10;3.55;;;4.80;99.90;;;;;;4952688;28;20104;-47
2022/02/05 02:41:51;;;;;;;15.57;3.10;;;4.80;99.90;;;;;;4964837;28;20094;-48
2022/02/05 02:44:18;;;;;;;15.82;2.83;;;4.70;99.90;;;;;;4942465;29;20133;-46
2022/02/05 02:46:44;;;;;;;13.73;3.20;;;4.70;99.90;;;;;;4983172;28;20055;-62
2022/02/05 02:49:15;;;;;;;16.08;3.15;;;4.70;99.90;;;;;;4957856;28;20058;-62
2022/02/05 02:57:23;;;;;;;17.00;2.78;;;4.50;99.90;;;;;;4964491;28;20133;-63
2022/02/05 02:59:56;;;;;;;15.98;3.13;;;4.50;99.90;;;;;;4946772;28;20051;-62
2022/02/05 03:02:25;;;;;;;13.13;3.15;;;4.40;99.90;;;;;;4950275;28;20047;-63
2022/02/05 03:04:53;;;;;;;14.82;3.58;;;4.40;99.90;;;;;;4958379;28;20078;-62
2022/02/05 03:07:24;;;;;;;17.50;3.10;;;4.40;99.90;;;;;;4930843;28;20418;-62
2022/02/05 03:09:52;;;;;;;10.13;3.13;;;4.30;99.90;;;;;;4977312;28;20135;-62
2022/02/05 03:12:19;;;;;;;17.70;3.60;;;4.30;99.90;;;;;;4957910;28;20051;-62
2022/02/05 03:14:46;;;;;;;13.95;3.53;;;4.30;99.90;;;;;;4941385;28;20752;-63
2022/02/05 03:17:23;;;;;;;18.70;3.25;;;4.30;99.90;;;;;;4953738;28;20134;-62
2022/02/05 03:19:53;;;;;;;15.63;3.00;;;4.40;99.90;;;;;;4953205;28;20122;-62
2022/02/05 03:22:21;;;;;;;20.30;3.97;;;4.40;99.90;;;;;;4944672;28;20053;-62
2022/02/05 03:24:48;;;;;;;15.98;3.92;;;4.50;99.90;;;;;;4957153;28;20289;-62
2022/02/05 03:27:15;;;;;;;18.38;3.85;;;4.50;99.90;;;;;;4957607;28;20344;-63
2022/02/05 03:29:46;;;;;;;20.15;3.67;;;4.50;99.90;;;;;;4953745;28;20055;-62
2022/02/05 03:32:12;;;;;;;18.02;3.85;;;4.40;99.90;;;;;;4944875;28;20051;-62
2022/02/05 03:34:38;;;;;;;11.52;2.63;;;4.40;99.90;;;;;;5003002;28;20040;-62
2022/02/05 03:37:05;;;;;;;14.60;2.80;;;4.40;99.90;;;;;;5050158;28;20458;-62
2022/02/05 03:39:32;;;;;;;14.88;3.22;;;4.40;99.90;;;;;;4960803;28;20498;-48
2022/02/05 03:41:58;;;;;;;23.00;4.82;;;4.30;99.90;;;;;;4945250;28;20248;-48
2022/02/05 03:44:25;;;;;;;17.40;3.42;;;4.30;99.90;;;;;;4953486;28;20053;-48
2022/02/05 03:46:53;;;;;;;16.23;3.78;;;4.30;99.90;;;;;;4972785;28;20054;-50
2022/02/05 03:49:20;;;;;;;21.92;4.35;;;4.20;99.90;;;;;;4960195;28;20059;-48
2022/02/05 03:51:48;;;;;;;16.35;3.58;;;4.20;99.90;;;;;;4951817;28;20502;-51
2022/02/05 03:54:18;;;;;;;19.48;3.65;;;4.20;99.90;;;;;;4962336;28;20153;-48
2022/02/05 03:56:44;;;;;;;14.95;3.47;;;4.20;99.90;;;;;;4946490;28;20059;-47
2022/02/05 03:59:11;;;;;;;18.95;3.05;;;4.20;99.90;;;;;;4961346;28;20092;-48
2022/02/05 04:01:37;;;;;;;15.10;3.85;;;4.20;99.90;;;;;;4959486;28;20058;-46
2022/02/05 04:04:03;;;;;;;20.55;3.72;;;4.20;99.90;;;;;;4947383;28;20047;-49
2022/02/05 04:06:29;;;;;;;23.60;3.78;;;4.30;99.90;;;;;;4959189;28;20497;-62
2022/02/05 04:08:59;;;;;;;24.67;4.22;;;4.20;99.90;;;;;;4956435;28;20062;-62
2022/02/05 04:16:42;;;;;;;18.55;3.67;;;4.30;99.90;;;;;;4954947;28;20130;-62
2022/02/05 04:19:08;;;;;;;18.33;3.15;;;4.20;99.90;;;;;;4945390;28;20113;-62
2022/02/05 04:21:35;;;;;;;18.27;3.42;;;4.30;99.90;;;;;;4957186;28;20078;-62
2022/02/05 04:24:02;;;;;;;21.20;4.35;;;4.20;99.90;;;;;;4943858;28;20066;-62
2022/02/05 04:26:29;;;;;;;16.30;3.65;;;4.20;99.90;;;;;;4951753;28;20056;-62
2022/02/05 04:28:56;;;;;;;20.42;4.22;;;4.10;99.90;;;;;;4946294;28;20450;-62
2022/02/05 04:31:23;;;;;;;18.98;3.67;;;4.20;99.90;;;;;;4961029;28;20050;-62
2022/02/05 04:33:50;;;;;;;20.42;3.40;;;4.20;99.90;;;;;;4960064;28;20055;-62
2022/02/05 04:36:18;;;;;;;19.40;3.35;;;4.20;99.90;;;;;;4954987;28;20129;-63
2022/02/05 04:38:46;;;;;;;18.52;3.92;;;4.20;99.90;;;;;;4940795;28;20055;-62
2022/02/05 04:41:20;;;;;;;14.48;3.25;;;4.30;99.90;;;;;;4955455;28;20103;-61
2022/02/05 05:10:06;;;;;;;16.73;3.38;;;4.30;99.90;;;;;;4948388;28;20054;-46
2022/02/05 05:20:27;;;;;;;17.00;3.42;;;4.00;99.90;;;;;;4954433;28;20059;-48
2022/02/05 05:22:54;;;;;;;17.20;4.10;;;4.00;99.90;;;;;;4951953;28;20047;-62
2022/02/05 05:25:20;;;;;;;20.00;3.42;;;4.00;99.90;;;;;;4955377;28;20048;-62
2022/02/05 05:27:47;;;;;;;17.63;3.50;;;3.90;99.90;;;;;;4955526;28;20051;-62
2022/02/05 05:30:13;;;;;;;16.98;4.35;;;3.80;99.90;;;;;;4961084;28;20145;-62
2022/02/05 05:32:39;;;;;;;20.17;3.25;;;3.80;99.90;;;;;;4962762;28;20079;-62
2022/02/05 05:35:06;;;;;;;16.08;3.25;;;3.80;99.90;;;;;;4959840;28;20057;-46
2022/02/05 05:37:33;;;;;;;21.70;4.00;;;3.80;99.90;;;;;;4941559;28;20478;-48
2022/02/05 05:39:59;;;;;;;16.60;3.40;;;3.90;99.90;;;;;;4981942;28;20059;-48
2022/02/05 05:42:31;;;;;;;19.52;3.58;;;3.80;99.90;;;;;;4962073;28;20457;-47
2022/02/05 05:45:19;;;;;;;25.95;3.38;;;3.90;99.90;;;;;;4960118;28;20472;-48
2022/02/05 05:47:53;;;;;;;17.77;3.22;;;3.80;99.90;;;;;;4953313;28;20050;-48
2022/02/05 05:53:08;;;;;;;20.10;3.75;;;3.80;99.90;;;;;;4976531;28;20070;-62
2022/02/05 05:55:35;;;;;;;18.98;3.85;;;3.70;99.90;;;;;;4941379;28;21750;-62
2022/02/05 05:58:01;;;;;;;21.73;3.85;;;3.80;99.90;;;;;;4959401;28;20213;-62
2022/02/05 06:00:27;;;;;;;16.60;3.30;;;3.80;99.90;;;;;;4953105;28;20054;-48
2022/02/05 06:02:54;;;;;;;21.58;3.35;;;3.80;99.90;;;;;;4954163;28;20446;-47
2022/02/05 06:05:20;;;;;;;17.50;3.65;;;3.90;99.90;;;;;;4954969;28;20086;-48
2022/02/05 06:07:46;;;;;;;15.77;3.03;;;3.90;99.90;;;;;;4962615;28;20054;-46
2022/02/05 06:10:12;;;;;;;12.60;3.42;;;4.00;99.90;;;;;;4938080;28;20055;-47
2022/02/05 06:12:38;;;;;;;19.38;3.35;;;4.00;99.90;;;;;;4927487;28;20408;-47
2022/02/05 06:15:07;;;;;;;19.52;3.38;;;3.90;99.90;;;;;;4951159;28;20096;-48
2022/02/05 06:17:34;;;;;;;13.70;2.63;;;3.80;99.90;;;;;;4962327;28;20097;-48
2022/02/05 06:20:00;;;;;;;16.02;3.85;;;3.80;99.90;;;;;;4956783;28;20496;-63
2022/02/05 06:22:27;;;;;;;10.35;2.58;;;3.70;99.90;;;;;;4944817;28;20051;-62
2022/02/05 06:24:53;;;;;;;17.05;3.17;;;3.70;99.90;;;;;;4957889;28;20283;-62
2022/02/05 06:27:19;;;;;;;17.75;3.53;;;3.60;99.90;;;;;;4980070;28;20524;-59
2022/02/05 06:29:45;;;;;;;19.73;3.22;;;3.60;99.90;;;;;;4982087;28;20551;-62
2022/02/05 06:32:15;;;;;;;15.98;3.08;;;3.60;99.90;;;;;;4982832;28;20050;-63
2022/02/05 06:34:41;;;;;;;15.43;3.53;;;3.60;99.90;;;;;;4951045;28;20310;-62
2022/02/05 06:37:07;;;;;;;20.08;3.30;;;3.60;99.90;;;;;;4953711;28;20043;-62
2022/02/05 06:39:34;;;;;;;15.75;3.97;;;3.50;99.90;;;;;;4929794;28;20503;-49
2022/02/05 06:42:00;;;;;;;15.57;3.25;;;3.40;99.90;;;;;;4954476;28;20043;-48
2022/02/05 06:44:26;;;;;;;14.85;3.33;;;3.40;99.90;;;;;;4961006;28;20184;-48
2022/02/05 06:46:52;;;;;;;14.77;4.63;;;3.40;99.90;;;;;;4950000;28;20134;-47
2022/02/05 06:49:19;;;;;;;15.05;3.67;;;3.40;99.90;;;;;;4944962;28;20522;-46
2022/02/05 06:51:46;;;;;;;12.57;3.08;;;3.40;99.90;;;;;;4960187;28;20326;-47
2022/02/05 06:54:12;;;;;;;16.92;3.20;;;3.50;99.90;;;;;;4943374;28;20134;-49
2022/02/05 06:56:38;;;;;;;24.17;3.40;;;3.40;99.90;;;;;;4946836;28;20133;-49
2022/02/05 06:59:04;;;;;;;15.15;2.75;;;3.50;99.90;;;;;;4946390;28;20049;-48
2022/02/05 07:01:30;;;;;;;19.65;3.30;;;3.40;99.90;;;;;;4980656;28;20558;-51
2022/02/05 07:03:56;;;;;;;21.88;4.63;;;3.40;99.90;;;;;;5005752;28;20043;-49
2022/02/05 07:06:22;;;;;;;16.38;3.08;;;3.40;99.90;;;;;;5013448;28;20485;-47
2022/02/05 07:08:49;;;;;;;14.45;3.45;;;3.30;99.90;;;;;;4992001;28;20064;-47
2022/02/05 07:11:15;;;;;;;15.25;3.22;;;3.30;99.90;;;;;;5023212;28;20048;-47
2022/02/05 07:13:41;;;;;;;17.33;3.65;;;3.30;99.90;;;;;;5038853;28;20141;-47
2022/02/05 07:16:16;;;;;;;18.33;3.17;;;3.30;99.90;;;;;;5022174;28;20032;-47
2022/02/05 07:29:13;;;;;;;13.75;3.63;;;3.20;99.90;;;;;;5061773;28;20053;-63
2022/02/05 07:31:54;;;;;;;18.83;3.75;;;3.20;99.90;;;;;;4989376;28;20041;-62
2022/02/05 07:34:24;;;;;;;23.52;4.40;;;3.10;99.90;;;;;;4959077;28;20437;-62
2022/02/05 07:36:52;;;;;;;17.50;3.88;;;3.10;99.90;;;;;;4967757;28;20085;-63
2022/02/05 07:39:19;;;;;;;14.57;3.38;;;3.10;99.90;;;;;;5007084;28;20137;-62
2022/02/05 07:41:45;;;;;;;15.50;3.60;;;3.10;99.90;;;;;;4987231;28;20510;-49
2022/02/05 07:44:14;;;;;;;20.65;3.58;;;3.10;99.90;;;;;;4960521;28;20057;-50
2022/02/05 07:46:46;;;;;;;23.30;3.50;;;3.20;99.90;;;;;;4945740;28;20066;-49
2022/02/05 07:49:14;;;;;;;19.63;3.58;;;3.20;99.90;;;;;;4981365;28;20052;-50
2022/02/05 07:51:40;;;;;;;16.70;3.53;;;3.20;99.90;;;;;;5062553;28;20385;-51
2022/02/05 07:54:10;;;;;;;17.00;3.75;;;3.30;99.90;;;;;;5025007;28;20137;-46
2022/02/05 07:56:56;;;;;;;19.58;4.03;;;3.30;99.90;;;;;;5003294;28;20047;-47
2022/02/05 07:59:22;;;;;;;19.00;3.83;;;3.30;99.90;;;;;;5021711;28;20703;-63
2022/02/05 08:01:48;;;;;;;21.88;4.30;;;3.40;99.90;;;;;;5061605;28;20903;-61
2022/02/05 08:04:14;;;;;;;19.80;4.30;;;3.50;99.90;;;;;;5060720;28;20048;-62
2022/02/05 08:06:44;;;;;;;20.95;4.45;;;3.60;99.90;;;;;;4968493;28;20047;-63
2022/02/05 08:09:58;;;;;;;20.30;4.20;;;3.60;99.90;;;;;;4986558;28;20078;-60
2022/02/05 08:12:09;;;;;;;17.90;3.47;;;3.70;99.90;;;;;;4982100;28;20125;-60
2022/02/05 08:14:39;;;;;;;20.90;4.35;;;3.80;99.90;;;;;;4953741;28;20077;-48
2022/02/05 08:17:08;;;;;;;24.02;3.65;;;3.80;99.90;;;;;;4978353;28;20125;-47
2022/02/05 08:19:34;;;;;;;19.23;4.32;;;3.90;99.90;;;;;;4977035;28;20128;-49
2022/02/05 08:22:00;;;;;;;20.63;4.10;;;4.00;99.90;;;;;;4972028;28;20069;-49
2022/02/05 08:24:26;;;;;;;14.18;3.92;;;4.10;99.90;;;;;;4966731;28;20454;-48
2022/02/05 08:26:52;;;;;;;22.77;3.80;;;4.20;99.90;;;;;;4980663;28;20486;-50
2022/02/05 08:29:20;;;;;;;21.88;5.07;;;4.40;99.90;;;;;;5001171;28;20048;-48
2022/02/05 08:31:46;;;;;;;19.45;3.35;;;4.50;99.90;;;;;;4963674;28;20051;-46
2022/02/05 08:34:12;;;;;;;15.40;3.50;;;4.60;99.90;;;;;;4962134;28;20414;-46
2022/02/05 08:36:44;;;;;;;18.38;3.50;;;4.70;99.90;;;;;;4994494;28;20177;-46
2022/02/05 08:39:11;;;;;;;19.58;3.60;;;4.90;99.90;;;;;;4968510;28;20502;-46
2022/02/05 08:41:38;;;;;;;14.32;3.50;;;4.90;99.90;;;;;;5011744;28;20058;-62
2022/02/05 08:44:04;;;;;;;21.13;3.55;;;4.90;99.90;;;;;;4962019;28;20506;-63
2022/02/05 08:46:31;;;;;;;17.15;3.30;;;4.90;99.90;;;;;;4969164;28;20046;-61
2022/02/05 08:48:57;;;;;;;16.60;3.50;;;5.10;99.90;;;;;;4977194;28;20043;-62
2022/02/05 08:51:23;;;;;;;17.00;3.65;;;5.00;99.90;;;;;;4963367;28;20054;-62
2022/02/05 08:53:50;;;;;;;16.27;3.60;;;5.30;99.90;;;;;;4990495;28;20097;-62
2022/02/05 08:56:16;;;;;;;19.80;3.65;;;5.70;99.90;;;;;;4981693;28;20460;-62
2022/02/05 08:58:42;;;;;;;15.25;3.65;;;6.10;99.90;;;;;;4994184;28;20059;-47
2022/02/05 09:01:16;;;;;;;22.60;4.28;;;6.30;99.90;;;;;;4988015;28;20051;-47
2022/02/05 09:06:30;;;;;;;18.15;3.50;;;7.10;99.90;;;;;;4972966;28;20054;-47
2022/02/05 09:11:48;;;;;;;15.18;3.47;;;7.40;99.90;;;;;;4980275;28;20164;-46
2022/02/05 09:14:30;;;;;;;18.73;3.72;;;7.70;99.90;;;;;;4974413;28;20497;-47
2022/02/05 09:16:56;;;;;;;;;;;7.40;99.90;;;;;;4969958;28;20050;-45
2022/02/05 09:19:23;;;;;;;16.33;4.45;;;7.10;99.90;;;;;;4964558;28;19968;-46
2022/02/05 09:21:49;;;;;;;20.50;4.85;;;6.70;99.90;;;;;;4963580;28;20061;-61
2022/02/05 09:24:15;;;;;;;20.33;4.68;;;6.60;99.90;;;;;;4965461;28;20051;-61
2022/02/05 09:26:48;;;;;;;18.83;3.97;;;6.30;99.90;;;;;;4961374;28;20545;-61
2022/02/05 09:29:20;;;;;;;16.20;4.20;;;6.10;99.90;;;;;;5005696;28;20142;-64
2022/02/05 09:31:47;;;;;;;17.80;4.15;;;5.90;99.90;;;;;;4944682;28;20130;-61
2022/02/05 09:34:13;;;;;;;17.95;4.05;;;6.00;99.90;;;;;;4961556;28;20042;-62
2022/02/05 09:36:40;;;;;;;15.48;3.97;;;5.90;99.90;;;;;;4961493;28;20060;-61
2022/02/05 09:39:08;;;;;;;19.67;4.43;;;5.90;99.90;;;;;;4977287;28;20047;-61
2022/02/05 09:41:35;;;;;;;22.40;4.72;;;5.80;99.90;;;;;;4970116;28;20046;-61
2022/02/05 09:44:02;;;;;;;18.63;4.20;;;5.80;99.90;;;;;;4961390;28;20054;-61
2022/02/05 09:46:28;;;;;;;17.98;3.80;;;5.80;99.90;;;;;;4966788;28;20043;-61
2022/02/05 09:48:55;;;;;;;26.58;4.72;;;5.90;99.90;;;;;;4997676;28;20047;-61
2022/02/05 09:51:31;;;;;;;24.33;4.50;;;6.00;99.90;;;;;;4968055;28;20061;-62
2022/02/05 09:53:58;;;;;;;16.38;3.58;;;6.00;99.90;;;;;;4981238;28;20039;-61
2022/02/05 09:56:26;;;;;;;18.58;4.43;;;6.00;99.90;;;;;;4992041;28;20039;-61
2022/02/05 09:58:54;;;;;;;16.13;4.00;;;6.00;99.90;;;;;;4975160;28;20079;-61
2022/02/05 10:01:26;;;;;;;22.17;4.32;;;6.20;99.90;;;;;;4974781;28;20058;-62
2022/02/05 10:03:53;;;;;;;15.82;3.88;;;6.20;99.90;;;;;;4984453;28;20180;-60
2022/02/05 10:06:28;;;;;;;19.70;4.00;;;6.60;99.90;;;;;;4972661;28;20069;-61
2022/02/05 10:09:06;;;;;;;14.43;3.65;;;7.30;99.90;;;;;;4979513;28;20461;-61
2022/02/05 10:11:48;;;;;;;10.65;2.92;;;7.80;99.90;;;;;;4980669;28;20057;-61
2022/02/05 10:14:17;;;;;;;13.65;3.47;;;7.80;99.90;;;;;;4968700;28;20042;-61
2022/02/05 10:16:53;;;;;;;17.88;5.00;;;8.10;99.90;;;;;;4985636;28;20043;-61
2022/02/05 10:19:23;;;;;;;16.75;3.70;;;8.70;99.90;;;;;;5046064;28;20509;-62
2022/02/05 10:22:07;;;;;;;17.45;3.45;;;8.30;99.90;;;;;;4993418;28;20116;-62
2022/02/05 10:24:34;;;;;;;17.45;4.15;;;7.80;99.90;;;;;;4980993;28;20548;-62
2022/02/05 10:27:00;;;;;;;21.52;4.30;;;7.50;99.90;;;;;;5004130;28;20047;-61
2022/02/05 10:29:27;;;;;;;15.52;3.50;;;7.10;99.90;;;;;;4974593;28;20063;-61
2022/02/05 10:32:01;;;;;;;20.23;3.85;;;6.90;99.90;;;;;;4974580;28;20452;-61
2022/02/05 10:34:29;;;;;;;15.43;3.70;;;6.80;99.90;;;;;;4979558;28;20040;-51
2022/02/05 10:37:22;;;;;;;17.92;4.18;;;6.70;99.90;;;;;;4979195;28;20047;-50
2022/02/05 10:45:15;;;;;;;16.13;3.80;;;6.50;99.90;;;;;;4986775;28;20042;-61
2022/02/05 10:47:56;;;;;;;17.00;3.50;;;6.50;99.90;;;;;;4975118;28;20055;-62
2022/02/05 10:50:26;;;;;;;17.25;4.05;;;6.50;99.90;;;;;;4968426;28;20055;-62
2022/02/05 10:53:21;;;;;;;11.45;3.42;;;6.40;99.90;;;;;;4996465;28;20724;-63
2022/02/05 10:56:00;;;;;;;15.88;4.63;;;6.40;99.90;;;;;;4979325;28;20050;-46
2022/02/05 11:07:00;;;;;;;11.20;3.50;;;6.40;99.90;;;;;;4996699;28;20399;-63
2022/02/05 11:09:27;;;;;;;18.52;4.32;;;6.50;99.90;;;;;;4979568;28;20054;-50
2022/02/05 11:20:05;;;;;;;11.70;2.97;;;7.10;99.90;;;;;;4978766;28;20081;-59
2022/02/05 11:22:37;;;;;;;13.00;3.13;;;7.10;99.90;;;;;;4979767;28;20050;-63
2022/02/05 11:25:05;;;;;;;15.20;3.03;;;7.20;99.90;;;;;;4968476;28;20047;-49
2022/02/05 11:27:32;;;;;;;13.63;3.53;;;7.40;99.90;;;;;;4993676;28;20073;-49
2022/02/05 11:30:27;;;;;;;15.48;3.65;;;7.40;99.90;;;;;;4965046;28;20924;-47
2022/02/05 11:32:56;;;;;;;15.02;3.05;;;7.40;99.90;;;;;;4991891;28;20044;-49
2022/02/05 11:35:45;;;;;;;14.30;3.33;;;7.50;99.90;;;;;;4976480;28;20054;-47
2022/02/05 11:38:11;;;;;;;12.50;3.60;;;7.60;99.90;;;;;;5028525;28;20041;-46
2022/02/05 11:40:52;;;;;;;12.27;3.38;;;7.50;99.90;;;;;;4976419;28;20448;-47
2022/02/05 11:43:24;;;;;;;14.70;3.75;;;7.40;99.90;;;;;;4961678;28;20524;-51
2022/02/05 11:46:09;;;;;;;13.65;3.85;;;7.30;99.90;;;;;;5036212;28;20044;-48
2022/02/05 11:48:51;;;;;;;12.82;4.03;;;7.10;99.90;;;;;;5003185;28;20557;-48
2022/02/05 11:51:17;;;;;;;14.93;3.60;;;7.00;99.90;;;;;;4984315;28;20047;-48
2022/02/05 11:53:55;;;;;;;21.23;5.20;;;7.00;99.90;;;;;;5058590;28;20403;-49
2022/02/05 11:56:22;;;;;;;16.77;3.38;;;7.00;99.90;;;;;;5064699;28;20570;-46
2022/02/05 11:58:58;;;;;;;13.15;3.10;;;7.10;99.90;;;;;;5000464;28;20047;-49
2022/02/05 12:01:39;;;;;;;13.27;3.50;;;7.20;99.90;;;;;;4944645;28;20508;-48
2022/02/05 12:04:14;;;;;;;13.35;3.20;;;7.20;99.90;;;;;;4995024;28;20146;-51
2022/02/05 12:06:49;;;;;;;14.45;3.38;;;7.40;99.90;;;;;;4988084;28;20463;-49
2022/02/05 12:09:44;;;;;;;13.95;3.38;;;7.60;99.90;;;;;;4952448;28;20039;-48
2022/02/05 12:12:27;;;;;;;13.73;3.20;;;8.00;99.90;;;;;;4997293;28;20058;-48
2022/02/05 12:15:12;;;;;;;12.32;2.80;;;7.90;99.90;;;;;;4969983;28;20552;-50
2022/02/05 12:20:53;;;;;;;13.27;3.17;;;7.90;99.90;;;;;;5006103;28;20070;-63
2022/02/05 12:23:32;;;;;;;16.23;3.40;;;7.80;99.90;;;;;;5002307;28;20052;-48
2022/02/05 12:25:58;;;;;;;15.07;4.40;;;7.70;99.90;;;;;;4993183;28;20130;-48
2022/02/05 12:28:39;;;;;;;20.23;3.53;;;7.70;99.90;;;;;;4990202;28;20045;-49
2022/02/05 12:31:25;;;;;;;14.73;3.78;;;7.60;99.90;;;;;;5000183;28;20448;-49
2022/02/05 12:34:00;;;;;;;10.10;3.60;;;7.70;99.90;;;;;;4969541;28;20509;-52
2022/02/05 12:36:27;;;;;;;12.15;3.00;;;8.00;99.90;;;;;;4988208;28;20061;-51
2022/02/05 12:38:55;;;;;;;16.33;3.63;;;8.50;99.90;;;;;;4998156;28;20117;-47
2022/02/05 12:41:22;;;;;;;16.70;2.90;;;8.80;99.90;;;;;;4998987;28;20059;-51
2022/02/05 12:43:49;;;;;;;11.48;2.72;;;9.50;99.90;;;;;;5008169;28;20065;-48
2022/02/05 12:46:16;;;;;;;11.73;3.10;;;9.60;99.90;;;;;;5005791;28;20050;-48
2022/02/05 12:48:48;;;;;;;11.98;3.58;;;9.30;99.90;;;;;;5007443;28;20051;-47
2022/02/05 12:51:15;;;;;;;14.93;3.60;;;9.70;99.90;;;;;;5023968;28;20575;-48
2022/02/05 12:53:43;;;;;;;11.85;3.25;;;9.70;99.90;;;;;;5020459;28;20732;-48
2022/02/05 12:56:16;;;;;;;12.18;2.85;;;10.20;99.90;;;;;;4988992;28;20047;-48
2022/02/05 12:59:03;;;;;;;13.60;3.00;;;10.60;99.90;;;;;;4977830;28;20046;-47
2022/02/05 13:01:31;;;;;;;15.68;3.20;;;10.70;99.90;;;;;;4990638;28;20145;-49
2022/02/05 13:04:14;;;;;;;12.57;2.90;;;10.90;99.90;;;;;;4984048;28;20046;-48
2022/02/05 13:06:41;;;;;;;10.35;2.70;;;10.90;99.90;;;;;;5017166;28;20040;-48
2022/02/05 13:09:21;;;;;;;12.85;2.95;;;11.10;99.90;;;;;;5000609;28;20053;-47
2022/02/05 13:11:56;;;;;;;10.05;3.10;;;10.30;99.90;;;;;;5032744;28;20055;-49
2022/02/05 13:14:22;;;;;;;12.50;2.85;;;9.50;99.90;;;;;;4967959;28;20082;-46
2022/02/05 13:16:50;;;;;;;14.65;4.28;;;8.80;99.90;;;;;;4983036;28;20044;-47
2022/02/05 13:19:26;;;;;;;15.35;3.75;;;9.10;99.90;;;;;;5079704;28;20051;-47
2022/02/05 13:27:29;;;;;;;16.80;2.80;;;9.70;99.90;;;;;;4958382;28;20050;-48
2022/02/05 13:33:33;;;;;;;11.05;2.75;;;10.50;99.90;;;;;;4991856;28;20602;-48
2022/02/05 13:35:26;;;;;;;13.10;2.97;;;11.20;99.90;;;;;;5007343;28;20559;-47
2022/02/05 13:37:57;;;;;;;11.52;2.50;;;11.20;99.90;;;;;;4989174;28;20405;-63
2022/02/05 13:40:29;;;;;;;13.45;3.22;;;11.20;99.90;;;;;;4945957;28;20540;-62
2022/02/05 13:43:10;;;;;;;9.90;2.65;;;10.60;99.90;;;;;;4966238;28;20048;-63
2022/02/05 13:45:38;;;;;;;9.52;2.33;;;10.10;99.90;;;;;;4961232;28;20047;-47
2022/02/05 13:48:05;;;;;;;11.70;2.67;;;9.30;99.90;;;;;;4974595;28;20050;-63
2022/02/05 13:50:32;;;;;;;11.27;2.72;;;9.30;99.90;;;;;;4955564;28;20070;-62
2022/02/05 13:53:03;;;;;;;13.05;3.83;;;9.00;99.90;;;;;;4950865;28;20623;-47
2022/02/05 13:55:40;;;;;;;10.52;2.90;;;8.70;99.90;;;;;;4963613;28;20583;-49
2022/02/05 13:58:08;;;;;;;12.88;2.70;;;8.60;99.90;;;;;;4998476;28;20265;-47
2022/02/05 14:00:56;;;;;;;16.05;2.95;;;8.50;99.90;;;;;;4948382;28;20516;-51
2022/02/05 14:03:30;;;;;;;8.35;2.33;;;8.50;99.90;;;;;;4955069;28;20047;-48
2022/02/05 14:06:07;;;;;;;9.93;2.72;;;8.40;99.90;;;;;;4955378;28;20054;-46
2022/02/05 14:08:55;;;;;;;14.38;2.95;;;8.90;99.90;;;;;;4970942;28;20104;-47
2022/02/05 14:11:31;;;;;;;11.88;2.83;;;8.90;99.90;;;;;;4964137;28;20177;-48
2022/02/05 14:14:12;;;;;;;12.30;3.40;;;8.80;99.90;;;;;;4957607;28;20510;-47
2022/02/05 14:16:40;;;;;;;14.52;2.60;;;8.60;99.90;;;;;;4960178;28;20491;-48
2022/02/05 14:19:08;;;;;;;11.57;2.42;;;8.40;99.90;;;;;;5019723;28;20525;-46
2022/02/05 14:21:43;;;;;;;12.80;3.13;;;8.30;99.90;;;;;;4929494;28;20093;-48
2022/02/05 14:24:24;;;;;;;14.48;3.10;;;8.20;99.90;;;;;;4944970;28;20054;-49
2022/02/05 14:27:04;;;;;;;11.97;2.30;;;8.10;99.90;;;;;;4951779;28;20556;-47
2022/02/05 14:29:39;;;;;;;11.27;2.90;;;7.90;99.90;;;;;;5007331;28;20310;-47
2022/02/05 14:32:27;;;;;;;10.57;2.10;;;7.90;99.90;;;;;;4962281;28;20047;-64
2022/02/05 14:42:37;;;;;;;9.43;2.00;;;7.80;99.90;;;;;;4965725;28;20069;-47
2022/02/05 14:45:05;;;;;;;8.68;2.25;;;7.80;99.90;;;;;;4991568;28;20722;-49
2022/02/05 14:47:31;;;;;;;7.38;2.20;;;7.90;99.90;;;;;;4984121;28;20579;-47
2022/02/05 14:49:57;;;;;;;12.30;3.38;;;7.80;99.90;;;;;;4958588;28;20054;-48
2022/02/05 14:52:24;;;;;;;9.90;3.55;;;7.80;99.90;;;;;;5025083;28;20075;-50
2022/02/05 14:54:50;;;;;;;16.25;2.72;;;7.70;99.90;;;;;;4960556;28;20047;-48
2022/02/05 14:57:17;;;;;;;8.07;2.50;;;7.60;99.90;;;;;;4966882;28;20053;-47
2022/02/05 14:59:43;;;;;;;9.05;2.88;;;7.60;99.90;;;;;;4961296;28;20097;-46
2022/02/05 15:02:10;;;;;;;9.48;2.85;;;7.70;99.90;;;;;;4944499;28;20501;-62
2022/02/05 15:04:38;;;;;;;12.15;2.78;;;7.80;99.90;;;;;;4949263;28;20051;-61
2022/02/05 15:07:05;;;;;;;9.43;3.13;;;8.00;99.90;;;;;;4994730;28;20111;-48
2022/02/05 15:09:32;;;;;;;12.93;2.80;;;8.10;99.90;;;;;;4949574;28;20097;-61
2022/02/05 15:11:58;;;;;;;9.50;2.03;;;7.90;99.90;;;;;;4962942;28;20059;-61
2022/02/05 15:14:24;;;;;;;9.40;2.50;;;8.00;99.90;;;;;;4949564;28;20530;-61
2022/02/05 15:16:50;;;;;;;10.82;2.78;;;7.90;99.90;;;;;;4964778;28;20045;-45
2022/02/05 15:19:16;;;;;;;12.68;2.45;;;7.80;99.90;;;;;;4957743;28;20047;-61
2022/02/05 15:21:42;;;;;;;9.18;2.30;;;7.70;99.90;;;;;;4958114;28;20055;-46
2022/02/05 15:24:10;;;;;;;12.98;2.55;;;7.60;99.90;;;;;;4954504;28;20046;-47
2022/02/05 15:26:37;;;;;;;13.52;3.17;;;7.60;99.90;;;;;;5016124;28;20118;-50
2022/02/05 15:29:06;;;;;;;10.18;2.25;;;7.60;99.90;;;;;;5019048;28;20047;-49
2022/02/05 15:31:33;;;;;;;10.60;2.50;;;7.70;99.90;;;;;;4961136;28;20413;-46
2022/02/05 15:34:02;;;;;;;14.63;2.65;;;7.70;99.90;;;;;;4965156;28;20076;-45
2022/02/05 15:36:40;;;;;;;12.48;2.15;;;7.60;99.90;;;;;;4943003;28;20058;-46
2022/02/05 15:44:22;;;;;;;12.63;2.38;;;7.40;99.90;;;;;;4960331;28;20404;-47
2022/02/05 15:46:49;;;;;;;13.10;2.90;;;7.20;99.90;;;;;;4974624;28;20128;-47
2022/02/05 15:49:15;;;;;;;12.10;2.85;;;7.20;99.90;;;;;;4969357;28;20571;-62
2022/02/05 15:51:41;;;;;;;9.98;2.92;;;7.10;99.90;;;;;;4958376;28;20083;-61
2022/02/05 15:54:10;;;;;;;19.95;3.47;;;7.10;99.90;;;;;;4994226;28;20054;-46
2022/02/05 15:56:56;;;;;;;12.80;2.80;;;7.00;99.90;;;;;;4955032;28;20039;-61
2022/02/05 15:59:28;;;;;;;8.82;2.22;;;7.00;99.90;;;;;;4946469;28;20047;-61
2022/02/05 16:01:54;;;;;;;13.45;3.03;;;7.00;99.90;;;;;;4950504;28;20378;-62
2022/02/05 16:04:21;;;;;;;11.27;3.00;;;7.00;99.90;;;;;;4957503;28;20098;-60
2022/02/05 16:06:48;;;;;;;12.10;2.97;;;7.00;99.90;;;;;;4974373;28;20060;-62
2022/02/05 16:09:14;;;;;;;12.63;2.90;;;7.00;99.90;;;;;;5054261;28;20611;-62
2022/02/05 16:11:40;;;;;;;11.57;3.25;;;6.90;99.90;;;;;;4923884;28;20131;-62
2022/02/05 16:14:06;;;;;;;12.55;2.63;;;7.00;99.90;;;;;;4945081;28;20047;-47